Hovedside
METAR-TAF:

METAR-TAF

Lufthavner :

Oljeplattform

Sleipner, Norge

breddegrad: 58-22-00N, lengdegrad: 001-54-25E, høyde over havet: 50 m

Gjeldene værobservasjon

Denne rapporten ble laget for 13 minutter siden, klokken 13:20 UTC
Vind 26 kt fra Sør
Temperatur 15°C
Luftfuktighet 94%
Trykk 1018 hPa
Sikt 10 km eller mer

METAR: ENSL 181320Z AUTO 17026KT 9999 FEW049/// 15/14 Q1018 W14/S3

Tid: 15:33 (13:33 UTC)


TAF: fraværende

Værobservasjoner og værvarsel for over 4000 flyplasser (METAR- og TAF-rapporter).

Tilgjengelige stasjoner er representert av de røde og gule prikkene på kartet.

Hold musepekeren over prikken for å se navnet på stasjonen.

Klikk så for å se værobservasjoner og -varsler.

For å forandre kartet kan du klikke på den grønne knappen med svart kryss for å zoome inn, på den grønne knappen med strek for å zoome ut, eller på de grønne pilene for å se tilstøtende kart.


METAR-TAF: